Urandangie, Australia
Current Conditions -  °F | °C
As of 2:30 AM on Saturday 22 Nov 2014 (Local Time) from YBMA Reporting Station
Clear Clear  
Wind Chill: 79°   Ceiling: Unl
Heat Index: 81°   Visibility: 6mi
Dew Point: 68°   Wind: 15mph
Humidity: 69%   Direction: 20°NNE
Pressure: 29.85"   Gusts: NA
Location:  21.6°S, 138.3°E
Report Text: YBMA 211630Z AUTO 02013KT 9999 // NCD 26/20 Q1011
Loading
Personal Weather Stations






























Interactive Weather Map New forecast layout! Learn more

10-Day Weather Forecast

Advertisements
Track Severe Weather on mobile